Terminal Aerodrome Forecast
Issued by NWS Louisville, KY

Home | Current Version | Previous Version | Text Only | Print | Product List | Glossary On
Versions: 1 2 3 4 5 6 7 8 9 10 11 12 13 14
000
FTUS43 KLMK 210500
TAFSDF
TAF
KSDF 210520Z 2106/2212 VRB03KT P6SM SKC
     FM211500 09007KT P6SM SKC
     FM220200 10004KT P6SM SCT040
     FM220700 12003KT P6SM BKN040=

USA.gov is the U.S. government's official web portal to all federal, state and local government web resources and services.